Time;durP1;ratioP1;P1;durP2;ratioP2;P2;SDS_P1;SDS_P2;PMS_P1;PMS_P2;Temp;Humidity;BMP_temperature;BMP_pressure;BME280_temperature;BME280_humidity;BME280_pressure;Samples;Min_cycle;Max_cycle;Signal;HPM_P1;HPM_P2
2021/09/17 00:00:56;;;;;;;15.45;12.93;;;14.50;99.90;;;;;;4981464;28;20060;-65
2021/09/17 00:03:21;;;;;;;16.60;14.35;;;14.50;99.90;;;;;;4983927;28;20644;-65
2021/09/17 00:05:47;;;;;;;15.10;13.50;;;14.50;99.90;;;;;;4981499;28;20133;-65
2021/09/17 00:08:13;;;;;;;16.88;13.20;;;14.50;99.90;;;;;;4981084;28;20082;-65
2021/09/17 00:10:39;;;;;;;17.00;13.80;;;14.40;99.90;;;;;;4981451;28;20129;-65
2021/09/17 00:13:05;;;;;;;19.50;13.57;;;14.40;99.90;;;;;;4980688;28;20043;-65
2021/09/17 00:15:30;;;;;;;15.27;13.75;;;14.40;99.90;;;;;;4980891;28;20133;-65
2021/09/17 00:17:56;;;;;;;16.35;13.43;;;14.40;99.90;;;;;;4981663;28;20046;-65
2021/09/17 00:20:23;;;;;;;15.43;13.63;;;14.30;99.90;;;;;;4983284;28;20042;-65
2021/09/17 00:22:48;;;;;;;17.35;14.65;;;14.30;99.90;;;;;;4981102;28;20492;-65
2021/09/17 00:25:14;;;;;;;16.08;13.32;;;14.30;99.90;;;;;;4982830;28;20049;-65
2021/09/17 00:27:40;;;;;;;15.85;13.80;;;14.20;99.90;;;;;;4967024;28;20508;-65
2021/09/17 00:30:06;;;;;;;19.40;14.75;;;14.20;99.90;;;;;;4982030;28;20476;-65
2021/09/17 00:32:32;;;;;;;17.00;14.77;;;14.10;99.90;;;;;;4982756;28;20050;-65
2021/09/17 00:34:58;;;;;;;16.58;13.75;;;14.10;99.90;;;;;;4983067;28;20108;-65
2021/09/17 00:37:23;;;;;;;14.80;13.20;;;14.00;99.90;;;;;;4984516;28;20040;-65
2021/09/17 00:39:49;;;;;;;14.57;12.48;;;13.90;99.90;;;;;;4984621;28;20046;-65
2021/09/17 00:42:15;;;;;;;17.30;13.48;;;13.90;99.90;;;;;;4983104;28;20125;-65
2021/09/17 00:44:40;;;;;;;17.38;14.05;;;13.90;99.90;;;;;;4985295;28;20046;-65
2021/09/17 00:47:06;;;;;;;16.70;14.50;;;13.90;99.90;;;;;;4984963;28;20464;-65
2021/09/17 00:49:31;;;;;;;15.85;14.13;;;13.90;99.90;;;;;;4985050;28;20492;-65
2021/09/17 00:51:57;;;;;;;17.88;14.55;;;13.90;99.90;;;;;;4984866;28;20042;-65
2021/09/17 00:54:25;;;;;;;16.42;13.88;;;13.90;99.90;;;;;;4984342;28;20547;-65
2021/09/17 00:56:51;;;;;;;16.50;14.50;;;13.90;99.90;;;;;;4987117;28;20061;-65
2021/09/17 00:59:17;;;;;;;16.15;14.55;;;13.90;99.90;;;;;;4981827;28;20038;-65
2021/09/17 01:01:43;;;;;;;15.25;13.48;;;13.90;99.90;;;;;;4985034;28;20042;-65
2021/09/17 01:04:10;;;;;;;16.98;15.18;;;13.90;99.90;;;;;;4985129;28;20531;-65
2021/09/17 01:06:37;;;;;;;17.00;15.13;;;13.90;99.90;;;;;;4983143;28;20057;-65
2021/09/17 01:09:04;;;;;;;18.90;14.20;;;13.90;99.90;;;;;;4983126;28;20050;-65
2021/09/17 01:11:31;;;;;;;21.00;15.32;;;13.80;99.90;;;;;;4985883;28;20350;-65
2021/09/17 01:13:58;;;;;;;17.73;14.48;;;13.80;99.90;;;;;;4984231;28;20053;-65
2021/09/17 01:16:23;;;;;;;16.48;14.77;;;13.80;99.90;;;;;;4986783;28;20164;-65
2021/09/17 01:18:52;;;;;;;20.48;16.67;;;13.80;99.90;;;;;;4985155;28;20174;-65
2021/09/17 01:21:19;;;;;;;17.60;14.68;;;13.80;99.90;;;;;;4983384;28;20694;-65
2021/09/17 01:23:45;;;;;;;15.90;13.38;;;13.80;99.90;;;;;;4985142;28;20057;-65
2021/09/17 01:26:10;;;;;;;17.60;14.98;;;13.80;99.90;;;;;;4982329;28;20050;-65
2021/09/17 01:28:36;;;;;;;19.45;14.43;;;13.80;99.90;;;;;;4984315;28;20828;-65
2021/09/17 01:31:02;;;;;;;15.63;13.98;;;13.80;99.90;;;;;;4985338;28;20039;-65
2021/09/17 01:33:28;;;;;;;19.85;14.75;;;13.70;99.90;;;;;;4981414;28;20130;-65
2021/09/17 01:36:00;;;;;;;19.33;16.50;;;13.70;99.90;;;;;;4985033;28;20053;-65
2021/09/17 01:38:27;;;;;;;17.48;15.65;;;13.70;99.90;;;;;;4983706;28;20416;-67
2021/09/17 01:40:53;;;;;;;18.40;15.82;;;13.70;99.90;;;;;;4984940;28;20042;-67
2021/09/17 01:43:19;;;;;;;20.30;15.45;;;13.70;99.90;;;;;;4985478;28;20046;-67
2021/09/17 01:45:45;;;;;;;18.40;16.10;;;13.70;99.90;;;;;;4984128;28;20624;-67
2021/09/17 01:48:10;;;;;;;18.40;16.35;;;13.60;99.90;;;;;;4982690;28;20043;-67
2021/09/17 01:50:36;;;;;;;21.83;16.92;;;13.60;99.90;;;;;;4982709;28;20078;-66
2021/09/17 01:53:02;;;;;;;18.65;16.63;;;13.60;99.90;;;;;;4983149;28;21480;-67
2021/09/17 01:55:27;;;;;;;21.15;16.63;;;13.60;99.90;;;;;;4984591;28;20034;-67
2021/09/17 01:57:54;;;;;;;19.65;17.17;;;13.60;99.90;;;;;;4982687;28;20038;-67
2021/09/17 02:00:19;;;;;;;21.45;16.98;;;13.60;99.90;;;;;;4983955;28;20794;-67
2021/09/17 02:02:46;;;;;;;19.77;15.55;;;13.60;99.90;;;;;;4985007;28;20126;-67
2021/09/17 02:05:12;;;;;;;19.40;16.60;;;13.60;99.90;;;;;;4983412;28;20046;-68
2021/09/17 02:07:37;;;;;;;19.45;16.10;;;13.60;99.90;;;;;;4982126;28;20143;-68
2021/09/17 02:10:05;;;;;;;18.23;16.30;;;13.60;99.90;;;;;;4982532;28;20046;-68
2021/09/17 02:12:30;;;;;;;17.52;15.77;;;13.60;99.90;;;;;;4983385;28;20034;-67
2021/09/17 02:14:56;;;;;;;17.92;15.50;;;13.60;99.90;;;;;;4983995;28;20060;-67
2021/09/17 02:17:23;;;;;;;17.92;16.02;;;13.60;99.90;;;;;;4983837;28;20943;-67
2021/09/17 02:19:49;;;;;;;13.43;12.02;;;13.60;99.90;;;;;;4981943;28;20567;-67
2021/09/17 02:22:15;;;;;;;13.52;12.13;;;13.40;99.90;;;;;;4980126;28;20078;-67
2021/09/17 02:24:40;;;;;;;15.57;12.35;;;13.40;99.90;;;;;;4981972;28;20137;-67
2021/09/17 02:27:06;;;;;;;12.50;11.23;;;13.30;99.90;;;;;;4982762;28;20057;-67
2021/09/17 02:29:32;;;;;;;12.98;11.77;;;13.30;99.90;;;;;;4985416;28;20034;-67
2021/09/17 02:31:58;;;;;;;13.43;12.18;;;13.20;99.90;;;;;;4987827;28;20429;-67
2021/09/17 02:34:23;;;;;;;15.77;12.00;;;13.20;99.90;;;;;;4987921;28;20081;-67
2021/09/17 02:36:49;;;;;;;15.13;13.63;;;13.20;99.90;;;;;;4986939;28;20772;-67
2021/09/17 02:39:15;;;;;;;15.43;13.57;;;13.20;99.90;;;;;;4986740;28;20038;-67
2021/09/17 02:41:43;;;;;;;15.90;14.23;;;13.30;99.90;;;;;;4987524;28;20512;-67
2021/09/17 02:44:09;;;;;;;13.95;12.60;;;13.30;99.90;;;;;;4986655;28;20089;-67
2021/09/17 02:46:34;;;;;;;13.75;12.45;;;13.30;99.90;;;;;;4988172;28;20034;-67
2021/09/17 02:49:00;;;;;;;14.10;12.60;;;13.30;99.90;;;;;;4985587;28;20053;-67
2021/09/17 02:51:27;;;;;;;16.90;14.90;;;13.30;99.90;;;;;;4988039;28;20042;-67
2021/09/17 02:53:52;;;;;;;16.20;14.50;;;13.40;99.90;;;;;;4987311;28;20053;-67
2021/09/17 02:56:18;;;;;;;15.80;14.20;;;13.40;99.90;;;;;;4987772;28;20034;-67
2021/09/17 02:58:43;;;;;;;18.20;16.17;;;13.40;99.90;;;;;;4985756;28;20038;-67
2021/09/17 03:01:09;;;;;;;16.50;14.93;;;13.50;99.90;;;;;;4986024;28;20488;-67
2021/09/17 03:03:34;;;;;;;17.48;15.63;;;13.40;99.90;;;;;;4986649;28;20425;-67
2021/09/17 03:06:00;;;;;;;21.50;17.40;;;13.40;99.90;;;;;;4987317;28;20050;-67
2021/09/17 03:08:25;;;;;;;18.48;15.65;;;13.50;99.90;;;;;;4987269;28;20078;-67
2021/09/17 03:10:56;;;;;;;14.73;13.27;;;13.50;99.90;;;;;;4985503;28;20078;-67
2021/09/17 03:13:23;;;;;;;13.25;11.95;;;13.50;99.90;;;;;;4987806;28;20085;-67
2021/09/17 03:15:49;;;;;;;15.65;12.68;;;13.40;99.90;;;;;;4984859;28;20078;-68
2021/09/17 03:18:14;;;;;;;16.60;13.40;;;13.30;99.90;;;;;;4984861;28;20085;-68
2021/09/17 03:20:41;;;;;;;17.95;15.95;;;13.30;99.90;;;;;;4986939;28;20089;-67
2021/09/17 03:23:07;;;;;;;17.60;15.05;;;13.30;99.90;;;;;;4985701;28;20614;-67
2021/09/17 03:25:32;;;;;;;16.63;14.52;;;13.40;99.90;;;;;;4986789;28;20121;-67
2021/09/17 03:27:58;;;;;;;47.47;19.55;;;13.40;99.90;;;;;;4984419;28;20469;-67
2021/09/17 03:30:24;;;;;;;145.48;25.50;;;13.50;99.90;;;;;;4986410;28;20038;-67
2021/09/17 03:32:49;;;;;;;42.38;21.38;;;13.50;99.90;;;;;;4984853;28;20469;-67
2021/09/17 03:35:16;;;;;;;64.57;21.08;;;13.40;99.90;;;;;;4983387;28;20050;-68
2021/09/17 03:37:42;;;;;;;132.77;22.05;;;13.40;99.90;;;;;;4982130;28;20133;-68
2021/09/17 03:40:10;;;;;;;95.10;23.20;;;13.40;99.90;;;;;;4977287;28;20125;-67
2021/09/17 03:42:35;;;;;;;61.53;25.73;;;13.40;99.90;;;;;;4980563;28;20584;-67
2021/09/17 03:45:01;;;;;;;68.38;23.90;;;13.40;99.90;;;;;;4981292;28;20049;-67
2021/09/17 03:47:26;;;;;;;45.58;22.40;;;13.40;99.90;;;;;;4981748;28;20129;-67
2021/09/17 03:49:52;;;;;;;39.35;22.95;;;13.40;99.90;;;;;;4982492;28;20034;-67
2021/09/17 03:52:17;;;;;;;24.83;20.73;;;13.40;99.90;;;;;;4983190;28;20066;-67
2021/09/17 03:54:43;;;;;;;31.83;20.35;;;13.40;99.90;;;;;;4983596;28;20046;-67
2021/09/17 03:57:09;;;;;;;23.67;20.55;;;13.40;99.90;;;;;;4982229;28;20049;-67
2021/09/17 03:59:34;;;;;;;37.15;22.25;;;13.40;99.90;;;;;;4982462;28;20108;-67
2021/09/17 04:02:01;;;;;;;22.27;20.15;;;13.40;99.90;;;;;;4983229;28;20057;-67
2021/09/17 04:04:27;;;;;;;22.65;20.35;;;13.40;99.90;;;;;;4982566;28;20056;-67
2021/09/17 04:06:53;;;;;;;25.00;21.95;;;13.40;99.90;;;;;;4981273;28;20092;-67
2021/09/17 04:09:19;;;;;;;24.30;21.70;;;13.40;99.90;;;;;;4981680;28;20034;-67
2021/09/17 04:11:45;;;;;;;23.92;21.42;;;13.40;99.90;;;;;;4982139;28;20042;-67
2021/09/17 04:14:11;;;;;;;24.05;21.55;;;13.40;99.90;;;;;;4985556;28;20531;-67
2021/09/17 04:16:37;;;;;;;24.45;22.05;;;13.40;99.90;;;;;;4984541;28;20042;-67
2021/09/17 04:19:03;;;;;;;21.95;19.75;;;13.40;99.90;;;;;;4983674;28;20053;-67
2021/09/17 04:21:30;;;;;;;23.13;21.02;;;13.40;99.90;;;;;;4988309;28;20104;-67
2021/09/17 04:23:55;;;;;;;22.25;20.20;;;13.40;99.90;;;;;;4986413;28;20042;-67
2021/09/17 04:26:22;;;;;;;24.85;22.45;;;13.40;99.90;;;;;;4985696;28;20077;-67
2021/09/17 04:28:49;;;;;;;24.48;21.20;;;13.40;99.90;;;;;;4985668;28;20069;-67
2021/09/17 04:31:15;;;;;;;20.83;18.67;;;13.40;99.90;;;;;;4985556;28;20042;-67
2021/09/17 04:33:41;;;;;;;17.77;16.15;;;13.30;99.90;;;;;;4986827;28;20089;-67
2021/09/17 04:36:07;;;;;;;22.25;19.85;;;13.30;99.90;;;;;;4990022;28;20045;-67
2021/09/17 04:38:33;;;;;;;27.67;24.77;;;13.30;99.90;;;;;;4990285;28;20070;-67
2021/09/17 04:40:58;;;;;;;27.67;23.75;;;13.40;99.90;;;;;;4989513;28;20467;-67
2021/09/17 04:43:24;;;;;;;25.80;22.02;;;13.40;99.90;;;;;;4986845;28;20057;-67
2021/09/17 04:45:50;;;;;;;25.45;21.75;;;13.50;99.90;;;;;;4987165;28;20857;-67
2021/09/17 04:48:16;;;;;;;24.25;21.83;;;13.40;99.90;;;;;;4986014;28;20092;-67
2021/09/17 04:50:43;;;;;;;25.67;22.67;;;13.50;99.90;;;;;;4986845;28;20099;-67
2021/09/17 04:53:09;;;;;;;21.80;19.75;;;13.40;99.90;;;;;;4984357;28;20515;-67
2021/09/17 04:55:35;;;;;;;24.38;21.80;;;13.50;99.90;;;;;;4985283;28;20034;-67
2021/09/17 04:58:06;;;;;;;23.52;21.25;;;13.40;99.90;;;;;;4985299;28;20076;-67
2021/09/17 05:00:34;;;;;;;26.13;23.08;;;13.40;99.90;;;;;;4986386;28;20046;-67
2021/09/17 05:02:59;;;;;;;23.85;21.35;;;13.40;99.90;;;;;;4985639;28;20045;-67
2021/09/17 05:05:26;;;;;;;23.90;21.48;;;13.40;99.90;;;;;;4985792;28;21390;-67
2021/09/17 05:07:52;;;;;;;26.67;23.77;;;13.40;99.90;;;;;;4984158;28;20105;-67
2021/09/17 05:10:17;;;;;;;26.92;24.05;;;13.40;99.90;;;;;;4984602;28;20057;-67
2021/09/17 05:12:43;;;;;;;28.60;25.75;;;13.40;99.90;;;;;;4987110;28;20069;-67
2021/09/17 05:15:09;;;;;;;27.17;24.25;;;13.50;99.90;;;;;;5002073;28;20046;-67
2021/09/17 05:17:35;;;;;;;24.45;22.05;;;13.40;99.90;;;;;;4984647;28;20093;-67
2021/09/17 05:20:01;;;;;;;26.25;23.45;;;13.50;99.90;;;;;;4986178;28;20049;-67
2021/09/17 05:22:27;;;;;;;24.35;21.83;;;13.50;99.90;;;;;;4985392;28;20042;-67
2021/09/17 05:24:53;;;;;;;37.08;27.85;;;13.50;99.90;;;;;;4985821;28;20038;-67
2021/09/17 05:27:19;;;;;;;22.95;20.73;;;13.50;99.90;;;;;;4983890;28;20034;-67
2021/09/17 05:29:45;;;;;;;22.30;20.10;;;13.30;99.90;;;;;;4984983;28;20104;-67
2021/09/17 05:32:11;;;;;;;22.25;20.15;;;13.40;99.90;;;;;;4984137;28;20548;-67
2021/09/17 05:34:37;;;;;;;23.48;21.27;;;13.40;99.90;;;;;;4984309;28;20062;-67
2021/09/17 05:37:04;;;;;;;22.00;19.85;;;13.40;99.90;;;;;;4985067;28;20038;-67
2021/09/17 05:39:29;;;;;;;22.70;20.52;;;13.40;99.90;;;;;;4982475;28;20046;-67
2021/09/17 05:41:55;;;;;;;23.65;21.27;;;13.50;99.90;;;;;;4984856;28;20033;-67
2021/09/17 05:44:20;;;;;;;21.02;18.92;;;13.50;99.90;;;;;;4982770;28;20508;-67
2021/09/17 05:46:46;;;;;;;20.30;18.60;;;13.40;99.90;;;;;;4982720;28;20485;-67
2021/09/17 05:49:12;;;;;;;21.80;19.70;;;13.50;99.90;;;;;;4985610;28;20160;-67
2021/09/17 05:51:38;;;;;;;21.45;19.52;;;13.50;99.90;;;;;;4986479;28;20050;-67
2021/09/17 05:54:03;;;;;;;21.58;19.58;;;13.50;99.90;;;;;;4986857;28;20082;-67
2021/09/17 05:56:30;;;;;;;20.92;18.83;;;13.50;99.90;;;;;;4984408;28;20039;-67
2021/09/17 05:58:55;;;;;;;21.88;19.88;;;13.50;99.90;;;;;;4983461;28;20049;-67
2021/09/17 06:01:21;;;;;;;23.60;21.20;;;13.60;99.90;;;;;;4982487;28;20057;-67
2021/09/17 06:03:47;;;;;;;20.38;18.63;;;13.60;99.90;;;;;;4983974;28;20049;-67
2021/09/17 06:06:12;;;;;;;21.73;19.58;;;13.60;99.90;;;;;;4983582;28;20045;-67
2021/09/17 06:08:38;;;;;;;20.63;18.45;;;13.60;99.90;;;;;;4983550;28;20045;-67
2021/09/17 06:11:04;;;;;;;21.20;19.02;;;13.70;99.90;;;;;;4983675;28;20052;-67
2021/09/17 06:13:30;;;;;;;21.60;19.65;;;13.70;99.90;;;;;;4984672;28;20038;-67
2021/09/17 06:15:56;;;;;;;21.20;19.17;;;13.80;99.90;;;;;;4981592;28;20121;-67
2021/09/17 06:18:21;;;;;;;21.50;19.52;;;13.80;99.90;;;;;;4984497;28;20030;-67
2021/09/17 06:20:47;;;;;;;19.90;18.10;;;13.90;99.90;;;;;;4982928;28;20046;-67
2021/09/17 06:23:13;;;;;;;19.40;17.60;;;14.00;99.90;;;;;;4985419;28;20042;-67
2021/09/17 06:25:39;;;;;;;20.45;18.75;;;14.10;99.90;;;;;;4983052;28;22681;-67
2021/09/17 06:28:06;;;;;;;19.05;17.27;;;14.10;99.90;;;;;;4984555;28;20042;-67
2021/09/17 06:30:32;;;;;;;18.90;16.98;;;14.10;99.90;;;;;;4982732;28;20120;-67
2021/09/17 06:32:58;;;;;;;17.30;15.75;;;14.30;99.90;;;;;;4984628;28;20125;-68
2021/09/17 06:35:24;;;;;;;16.83;15.23;;;14.50;99.90;;;;;;4984427;28;20113;-67
2021/09/17 06:37:52;;;;;;;16.65;15.25;;;14.70;99.90;;;;;;4982654;28;20480;-67
2021/09/17 06:40:20;;;;;;;17.73;16.23;;;14.80;99.90;;;;;;4979813;28;20049;-67
2021/09/17 06:42:47;;;;;;;19.58;17.77;;;14.80;99.90;;;;;;4979154;28;20042;-67
2021/09/17 06:45:13;;;;;;;19.20;17.40;;;14.80;99.90;;;;;;4983721;28;20451;-67
2021/09/17 06:47:58;;;;;;;19.80;18.02;;;14.80;99.90;;;;;;4984291;28;20447;-67
2021/09/17 06:50:27;;;;;;;19.05;17.25;;;14.80;99.90;;;;;;4983699;28;20086;-67
2021/09/17 06:52:54;;;;;;;21.58;19.70;;;14.80;99.90;;;;;;4983103;28;20141;-67
2021/09/17 06:55:23;;;;;;;21.80;19.90;;;14.80;99.90;;;;;;4966192;28;20042;-67
2021/09/17 06:57:50;;;;;;;25.10;22.52;;;14.80;99.90;;;;;;4980924;28;20051;-67
2021/09/17 07:00:17;;;;;;;23.15;20.67;;;14.80;99.90;;;;;;4981569;28;20089;-67
2021/09/17 07:02:43;;;;;;;22.00;19.95;;;14.80;99.90;;;;;;4982626;28;20038;-67
2021/09/17 07:05:10;;;;;;;21.70;19.75;;;14.90;99.90;;;;;;4982561;28;20049;-67
2021/09/17 07:07:35;;;;;;;22.10;20.10;;;14.90;99.90;;;;;;4983213;28;20050;-67
2021/09/17 07:10:02;;;;;;;20.23;18.33;;;15.00;99.90;;;;;;4981198;28;20460;-67
2021/09/17 07:12:28;;;;;;;19.67;17.88;;;15.10;99.90;;;;;;4983699;28;20128;-67
2021/09/17 07:14:54;;;;;;;20.27;18.48;;;15.10;99.90;;;;;;4982204;28;20204;-67
2021/09/17 07:17:19;;;;;;;20.55;18.60;;;15.30;99.90;;;;;;4981251;28;20043;-67
2021/09/17 07:19:45;;;;;;;21.95;19.90;;;15.30;99.90;;;;;;4982430;28;20481;-67
2021/09/17 07:22:11;;;;;;;21.50;19.60;;;15.40;99.90;;;;;;4983366;28;20088;-67
2021/09/17 07:24:37;;;;;;;20.85;18.95;;;15.50;99.90;;;;;;4983550;28;20060;-68
2021/09/17 07:27:02;;;;;;;21.77;19.77;;;15.50;99.90;;;;;;4982895;28;20061;-67
2021/09/17 07:29:28;;;;;;;22.75;20.27;;;15.50;99.90;;;;;;4983436;28;20046;-67
2021/09/17 07:31:54;;;;;;;21.08;19.05;;;15.60;99.90;;;;;;4982962;28;20049;-67
2021/09/17 07:34:20;;;;;;;22.30;20.00;;;15.60;99.90;;;;;;4981872;28;20038;-67
2021/09/17 07:36:45;;;;;;;21.30;19.25;;;15.60;99.90;;;;;;4983009;28;20043;-67
2021/09/17 07:39:11;;;;;;;22.55;20.25;;;15.60;99.90;;;;;;4983709;28;20066;-67
2021/09/17 07:41:36;;;;;;;26.55;20.80;;;15.70;99.90;;;;;;4981381;28;20038;-67
2021/09/17 07:44:02;;;;;;;22.25;20.25;;;15.70;99.90;;;;;;4982358;28;20049;-67
2021/09/17 07:46:28;;;;;;;23.60;21.38;;;15.80;99.90;;;;;;4981462;28;20663;-67
2021/09/17 07:48:54;;;;;;;25.92;22.30;;;15.90;99.90;;;;;;4984965;28;20088;-67
2021/09/17 07:51:20;;;;;;;24.98;22.52;;;15.90;99.90;;;;;;4983547;28;20473;-67
2021/09/17 07:53:45;;;;;;;23.08;20.83;;;16.00;99.90;;;;;;4984345;28;20038;-67
2021/09/17 07:56:11;;;;;;;28.00;24.88;;;16.00;99.90;;;;;;4986601;28;20432;-67
2021/09/17 07:58:37;;;;;;;24.85;22.35;;;16.10;99.90;;;;;;4990960;28;20056;-67
2021/09/17 08:01:04;;;;;;;24.88;22.17;;;16.10;99.90;;;;;;4988683;28;20077;-67
2021/09/17 08:03:31;;;;;;;26.95;23.90;;;16.10;99.90;;;;;;4988854;28;20043;-67
2021/09/17 08:05:58;;;;;;;25.27;22.63;;;16.10;99.90;;;;;;4988899;28;20060;-67
2021/09/17 08:08:24;;;;;;;28.77;24.90;;;16.20;99.90;;;;;;4990517;28;20050;-67
2021/09/17 08:10:49;;;;;;;27.58;23.70;;;16.30;99.90;;;;;;4988232;28;20037;-67
2021/09/17 08:13:15;;;;;;;25.15;22.45;;;16.30;99.90;;;;;;4987738;28;20555;-67
2021/09/17 08:15:41;;;;;;;29.00;24.52;;;16.30;99.90;;;;;;4990201;28;20045;-67
2021/09/17 08:18:06;;;;;;;26.02;23.13;;;16.30;99.90;;;;;;4988351;28;20042;-67
2021/09/17 08:20:32;;;;;;;27.80;24.25;;;16.30;99.90;;;;;;4990804;28;20514;-67
2021/09/17 08:22:58;;;;;;;28.90;24.13;;;16.30;99.90;;;;;;4989709;28;20036;-67
2021/09/17 08:25:24;;;;;;;27.77;23.95;;;16.20;99.90;;;;;;4989944;28;20449;-67
2021/09/17 08:27:50;;;;;;;28.83;25.00;;;16.30;99.90;;;;;;4986821;28;20130;-67
2021/09/17 08:30:17;;;;;;;30.60;25.45;;;16.30;99.90;;;;;;4988013;28;20125;-67
2021/09/17 08:32:42;;;;;;;32.45;25.35;;;16.30;99.90;;;;;;4989335;28;20580;-67
2021/09/17 08:35:10;;;;;;;27.85;24.55;;;16.40;99.90;;;;;;4989262;28;20121;-67
2021/09/17 08:37:35;;;;;;;28.33;25.42;;;16.40;99.90;;;;;;4988358;28;20100;-67
2021/09/17 08:40:03;;;;;;;28.40;24.67;;;16.40;99.90;;;;;;4987199;28;20049;-67
2021/09/17 08:42:30;;;;;;;30.35;25.17;;;16.50;99.90;;;;;;4987773;28;20101;-67
2021/09/17 08:44:56;;;;;;;33.55;24.30;;;16.50;99.90;;;;;;4986503;28;20179;-67
2021/09/17 08:47:23;;;;;;;28.02;24.45;;;16.50;99.90;;;;;;4987119;28;20081;-67
2021/09/17 08:49:49;;;;;;;28.15;25.08;;;16.60;99.90;;;;;;4987958;28;20050;-67
2021/09/17 08:52:14;;;;;;;27.92;24.92;;;16.60;99.90;;;;;;4988077;28;20400;-67
2021/09/17 08:54:40;;;;;;;29.33;24.60;;;16.60;99.90;;;;;;4988570;28;20172;-66
2021/09/17 08:57:06;;;;;;;29.48;24.52;;;16.60;99.90;;;;;;4988271;28;20050;-67
2021/09/17 08:59:32;;;;;;;29.10;24.85;;;16.70;99.90;;;;;;4988248;28;20408;-67
2021/09/17 09:02:22;;;;;;;27.40;24.30;;;16.70;99.90;;;;;;4985184;28;20070;-67
2021/09/17 09:05:06;;;;;;;26.92;23.00;;;16.70;99.90;;;;;;4983474;28;20053;-67
2021/09/17 09:07:38;;;;;;;25.33;22.63;;;16.80;99.90;;;;;;4983292;28;20464;-67
2021/09/17 09:10:13;;;;;;;27.90;24.05;;;16.80;99.90;;;;;;4979300;28;20069;-67
2021/09/17 09:12:52;;;;;;;25.98;22.92;;;16.90;99.90;;;;;;4985795;28;20463;-67
2021/09/17 09:15:25;;;;;;;27.02;23.23;;;17.00;99.90;;;;;;4983775;28;20484;-67
2021/09/17 09:17:58;;;;;;;25.35;22.63;;;17.00;99.90;;;;;;4982762;28;20157;-67
2021/09/17 09:20:30;;;;;;;27.45;22.00;;;17.00;99.90;;;;;;4983567;28;20069;-67
2021/09/17 09:23:07;;;;;;;26.08;23.23;;;17.00;99.90;;;;;;4982576;28;20485;-67
2021/09/17 09:25:34;;;;;;;24.00;21.52;;;17.00;99.90;;;;;;4949523;28;1036033;-67
2021/09/17 09:28:11;;;;;;;24.67;22.13;;;17.00;99.90;;;;;;4984930;28;20043;-67
2021/09/17 09:30:37;;;;;;;24.90;21.02;;;17.10;99.90;;;;;;4985881;28;20039;-67
2021/09/17 09:33:44;;;;;;;23.25;20.85;;;17.20;99.90;;;;;;4984897;28;20129;-67
2021/09/17 09:36:14;;;;;;;24.40;20.77;;;17.30;99.90;;;;;;4946066;28;20047;-67
2021/09/17 09:38:47;;;;;;;21.92;19.50;;;17.30;99.90;;;;;;4962877;28;20509;-67
2021/09/17 09:41:18;;;;;;;22.02;19.80;;;17.30;99.90;;;;;;4979037;28;20092;-67
2021/09/17 09:43:56;;;;;;;21.02;18.90;;;17.30;99.90;;;;;;4983696;28;20496;-67
2021/09/17 09:46:32;;;;;;;22.20;19.42;;;17.30;99.90;;;;;;4967167;28;20081;-67
2021/09/17 09:49:28;;;;;;;23.85;20.65;;;17.40;99.90;;;;;;4983070;28;20073;-67
2021/09/17 09:52:07;;;;;;;22.63;20.02;;;17.40;99.90;;;;;;4984689;28;20524;-67
2021/09/17 09:54:35;;;;;;;21.70;17.48;;;17.40;99.90;;;;;;4985197;28;20117;-67
2021/09/17 09:57:02;;;;;;;20.33;18.05;;;17.40;99.90;;;;;;4983409;28;20169;-67
2021/09/17 09:59:30;;;;;;;19.85;17.55;;;17.40;99.90;;;;;;4981854;28;20125;-67
2021/09/17 10:02:00;;;;;;;20.50;18.30;;;17.60;99.90;;;;;;4985113;28;20042;-67
2021/09/17 10:04:29;;;;;;;20.60;18.38;;;17.60;99.90;;;;;;4983651;28;20084;-67
2021/09/17 10:07:05;;;;;;;17.85;16.02;;;17.70;99.90;;;;;;4984275;28;21420;-67
2021/09/17 10:09:36;;;;;;;16.80;15.07;;;17.80;99.90;;;;;;4995959;28;20056;-67
2021/09/17 10:12:10;;;;;;;19.08;15.40;;;18.00;99.90;;;;;;4983201;28;20096;-67
2021/09/17 10:14:37;;;;;;;18.38;16.55;;;18.10;99.90;;;;;;4984092;28;20046;-67
2021/09/17 10:17:07;;;;;;;18.45;16.45;;;18.20;99.90;;;;;;4982198;28;20125;-67
2021/09/17 10:19:33;;;;;;;18.63;16.63;;;18.30;99.90;;;;;;4984659;28;20034;-67
2021/09/17 10:22:02;;;;;;;21.13;13.82;;;18.40;99.90;;;;;;4984450;28;20443;-67
2021/09/17 10:24:38;;;;;;;15.02;13.40;;;18.40;99.90;;;;;;4983067;28;20378;-67
2021/09/17 10:27:05;;;;;;;;;;;18.50;99.90;;;;;;4981854;28;20124;-67
2021/09/17 10:29:41;;;;;;;16.25;12.25;;;18.50;99.90;;;;;;4982778;28;20013;-67
2021/09/17 10:32:27;;;;;;;15.57;14.13;;;18.50;99.90;;;;;;4983253;28;20050;-67
2021/09/17 10:35:03;;;;;;;;;;;18.50;99.90;;;;;;4976128;28;20053;-67
2021/09/17 10:38:10;;;;;;;16.30;14.60;;;18.50;99.90;;;;;;4981107;28;20025;-67
2021/09/17 10:40:42;;;;;;;17.75;14.75;;;18.50;99.90;;;;;;4981619;28;20061;-67
2021/09/17 10:43:11;;;;;;;16.83;15.15;;;18.40;99.90;;;;;;4987210;28;20522;-67
2021/09/17 10:45:41;;;;;;;15.73;14.05;;;18.30;99.90;;;;;;4987428;28;20054;-67
2021/09/17 10:48:08;;;;;;;15.50;13.95;;;18.20;99.90;;;;;;4987459;28;20443;-67
2021/09/17 10:50:49;;;;;;;15.48;13.98;;;18.20;99.90;;;;;;4986696;28;20600;-67
2021/09/17 10:53:40;;;;;;;14.80;13.27;;;18.30;99.90;;;;;;4988102;28;20047;-67
2021/09/17 10:56:11;;;;;;;14.65;13.18;;;18.40;99.90;;;;;;4985948;28;20148;-67
2021/09/17 10:58:41;;;;;;;13.02;11.82;;;18.40;99.90;;;;;;4985060;28;20101;-67
2021/09/17 11:01:12;;;;;;;16.10;11.57;;;18.50;99.90;;;;;;4985404;28;20165;-67
2021/09/17 11:03:45;;;;;;;14.18;12.23;;;18.50;99.90;;;;;;4984040;28;20488;-67
2021/09/17 11:06:32;;;;;;;13.73;12.35;;;18.40;99.90;;;;;;4987385;28;20050;-67
2021/09/17 11:09:03;;;;;;;13.98;11.65;;;18.30;99.90;;;;;;4984787;28;20042;-67
2021/09/17 11:11:42;;;;;;;13.10;11.73;;;18.40;99.90;;;;;;4983934;28;20049;-67
2021/09/17 11:14:18;;;;;;;13.52;11.88;;;18.30;99.90;;;;;;4981558;28;20034;-67
2021/09/17 11:16:48;;;;;;;;;;;18.20;99.90;;;;;;4967366;28;20479;-67
2021/09/17 11:19:17;;;;;;;12.02;10.82;;;18.40;99.90;;;;;;4984314;28;19922;-68
2021/09/17 11:21:45;;;;;;;12.70;11.45;;;18.50;99.90;;;;;;4998164;28;20114;-67
2021/09/17 11:24:36;;;;;;;13.48;12.02;;;18.60;99.90;;;;;;4980720;28;20034;-67
2021/09/17 11:27:04;;;;;;;13.18;11.98;;;18.70;99.90;;;;;;4983702;28;20582;-67
2021/09/17 11:29:30;;;;;;;12.75;9.50;;;18.80;99.90;;;;;;4983755;28;20049;-67
2021/09/17 11:31:59;;;;;;;13.32;10.55;;;19.00;99.90;;;;;;4984221;28;20058;-67
2021/09/17 11:34:28;;;;;;;11.75;8.73;;;19.00;99.90;;;;;;4983054;28;20046;-67
2021/09/17 11:37:02;;;;;;;10.77;7.82;;;19.20;99.90;;;;;;4981621;28;20051;-67
2021/09/17 11:39:28;;;;;;;12.55;9.43;;;19.20;99.90;;;;;;4984429;28;20369;-67
2021/09/17 11:41:58;;;;;;;11.18;9.45;;;19.30;99.90;;;;;;4971930;28;20057;-67
2021/09/17 11:44:51;;;;;;;12.50;8.98;;;19.40;99.90;;;;;;4970921;28;20042;-67
2021/09/17 11:47:23;;;;;;;10.38;9.27;;;19.50;99.90;;;;;;4967926;28;20117;-67
2021/09/17 11:49:54;;;;;;;12.43;9.13;;;19.50;99.90;;;;;;4967691;28;20050;-67
2021/09/17 11:52:20;;;;;;;9.70;8.68;;;19.50;99.90;;;;;;4967014;28;20149;-67
2021/09/17 11:55:00;;;;;;;9.68;8.75;;;19.50;99.90;;;;;;4968113;28;20042;-67
2021/09/17 11:57:31;;;;;;;9.50;8.60;;;19.50;99.90;;;;;;4971701;28;20467;-67
2021/09/17 11:59:57;;;;;;;9.52;7.82;;;19.50;99.90;;;;;;4968895;28;20133;-67
2021/09/17 12:02:25;;;;;;;10.20;7.63;;;19.50;99.90;;;;;;4974192;28;21010;-67
2021/09/17 12:04:59;;;;;;;10.77;8.68;;;19.50;99.90;;;;;;4970853;28;20088;-67
2021/09/17 12:07:26;;;;;;;7.95;7.15;;;19.50;99.90;;;;;;4970774;28;20369;-67
2021/09/17 12:09:53;;;;;;;7.80;6.97;;;19.50;99.90;;;;;;4974506;28;20514;-67
2021/09/17 12:12:22;;;;;;;9.65;6.60;;;19.50;99.90;;;;;;4985098;28;20065;-67
2021/09/17 12:14:51;;;;;;;7.20;6.60;;;19.50;99.90;;;;;;4983862;28;20668;-67
2021/09/17 12:17:17;;;;;;;8.02;6.82;;;19.50;99.90;;;;;;4984570;28;20058;-67
2021/09/17 12:20:12;;;;;;;6.47;5.90;;;19.50;99.90;;;;;;4983710;28;20054;-67
2021/09/17 12:22:46;;;;;;;6.10;5.25;;;19.60;99.90;;;;;;4981066;28;20104;-67
2021/09/17 12:25:18;;;;;;;7.35;4.90;;;19.60;99.90;;;;;;4985467;28;20052;-67
2021/09/17 12:27:46;;;;;;;6.32;5.03;;;19.60;99.90;;;;;;4982483;28;20146;-67
2021/09/17 12:30:14;;;;;;;7.85;5.43;;;19.60;99.90;;;;;;4986025;28;20489;-67
2021/09/17 12:32:42;;;;;;;5.68;5.00;;;19.60;99.90;;;;;;4984821;28;20647;-67